sensor_id;sensor_type;location;lat;lon;timestamp;pressure;altitude;pressure_sealevel;temperature;humidity
8294;BME280;4185;41.506;24.938;2023-04-19T00:01:14;93023.91;;;7.98;100.00
8294;BME280;4185;41.506;24.938;2023-04-19T00:03:41;93023.19;;;7.98;100.00
8294;BME280;4185;41.506;24.938;2023-04-19T00:06:07;93019.25;;;7.99;100.00
8294;BME280;4185;41.506;24.938;2023-04-19T00:08:34;93016.81;;;8.01;100.00
8294;BME280;4185;41.506;24.938;2023-04-19T00:11:01;93010.63;;;8.00;100.00
8294;BME280;4185;41.506;24.938;2023-04-19T00:13:28;93017.78;;;7.98;100.00
8294;BME280;4185;41.506;24.938;2023-04-19T00:15:56;93012.34;;;7.98;100.00
8294;BME280;4185;41.506;24.938;2023-04-19T00:18:23;93006.94;;;7.98;100.00
8294;BME280;4185;41.506;24.938;2023-04-19T00:20:49;93010.84;;;7.97;100.00
8294;BME280;4185;41.506;24.938;2023-04-19T00:23:16;93007.44;;;7.96;100.00
8294;BME280;4185;41.506;24.938;2023-04-19T00:25:44;93017.03;;;7.97;100.00
8294;BME280;4185;41.506;24.938;2023-04-19T00:28:11;93001.53;;;7.98;100.00
8294;BME280;4185;41.506;24.938;2023-04-19T00:30:37;93005.44;;;7.97;100.00
8294;BME280;4185;41.506;24.938;2023-04-19T00:33:06;93002.50;;;7.95;100.00
8294;BME280;4185;41.506;24.938;2023-04-19T00:35:37;93001.75;;;7.94;100.00
8294;BME280;4185;41.506;24.938;2023-04-19T00:38:03;93000.75;;;7.92;100.00
8294;BME280;4185;41.506;24.938;2023-04-19T00:40:30;92995.59;;;7.94;100.00
8294;BME280;4185;41.506;24.938;2023-04-19T00:42:57;93008.91;;;7.97;100.00
8294;BME280;4185;41.506;24.938;2023-04-19T00:45:24;93001.53;;;7.98;100.00
8294;BME280;4185;41.506;24.938;2023-04-19T00:47:51;93009.91;;;8.00;100.00
8294;BME280;4185;41.506;24.938;2023-04-19T00:50:20;93004.50;;;8.00;100.00
8294;BME280;4185;41.506;24.938;2023-04-19T00:52:47;93008.41;;;7.99;100.00
8294;BME280;4185;41.506;24.938;2023-04-19T00:55:14;93008.41;;;7.99;100.00
8294;BME280;4185;41.506;24.938;2023-04-19T00:57:41;93004.75;;;8.02;100.00
8294;BME280;4185;41.506;24.938;2023-04-19T01:00:09;93002.03;;;8.02;100.00
8294;BME280;4185;41.506;24.938;2023-04-19T01:02:36;93003.53;;;8.03;100.00
8294;BME280;4185;41.506;24.938;2023-04-19T01:05:03;93005.22;;;8.00;100.00
8294;BME280;4185;41.506;24.938;2023-04-19T01:07:32;93003.97;;;7.96;100.00
8294;BME280;4185;41.506;24.938;2023-04-19T01:09:59;93003.72;;;7.94;100.00
8294;BME280;4185;41.506;24.938;2023-04-19T01:12:26;93003.44;;;7.92;100.00
8294;BME280;4185;41.506;24.938;2023-04-19T01:14:53;93000.03;;;7.91;100.00
8294;BME280;4185;41.506;24.938;2023-04-19T01:17:19;92995.81;;;7.90;100.00
8294;BME280;4185;41.506;24.938;2023-04-19T01:19:46;92993.59;;;7.89;100.00
8294;BME280;4185;41.506;24.938;2023-04-19T01:22:15;92990.63;;;7.87;100.00
8294;BME280;4185;41.506;24.938;2023-04-19T01:24:45;92990.34;;;7.85;100.00
8294;BME280;4185;41.506;24.938;2023-04-19T01:27:12;92981.03;;;7.86;100.00
8294;BME280;4185;41.506;24.938;2023-04-19T01:29:41;92981.75;;;7.81;100.00
8294;BME280;4185;41.506;24.938;2023-04-19T01:32:07;92980.22;;;7.74;100.00
8294;BME280;4185;41.506;24.938;2023-04-19T01:34:34;92982.16;;;7.74;100.00
8294;BME280;4185;41.506;24.938;2023-04-19T01:37:01;92980.25;;;7.80;100.00
8294;BME280;4185;41.506;24.938;2023-04-19T01:39:29;92981.03;;;7.86;100.00
8294;BME280;4185;41.506;24.938;2023-04-19T01:41:56;92984.28;;;7.90;100.00
8294;BME280;4185;41.506;24.938;2023-04-19T01:44:22;92977.38;;;7.89;100.00
8294;BME280;4185;41.506;24.938;2023-04-19T01:46:49;92981.78;;;7.86;100.00
8294;BME280;4185;41.506;24.938;2023-04-19T01:49:16;92975.63;;;7.86;100.00
8294;BME280;4185;41.506;24.938;2023-04-19T01:51:43;92972.41;;;7.82;100.00
8294;BME280;4185;41.506;24.938;2023-04-19T01:54:09;92978.34;;;7.86;100.00
8294;BME280;4185;41.506;24.938;2023-04-19T01:56:37;92976.84;;;7.85;100.00
8294;BME280;4185;41.506;24.938;2023-04-19T01:59:04;92981.22;;;7.77;100.00
8294;BME280;4185;41.506;24.938;2023-04-19T02:01:31;92978.69;;;7.68;100.00
8294;BME280;4185;41.506;24.938;2023-04-19T02:03:58;92965.22;;;7.73;100.00
8294;BME280;4185;41.506;24.938;2023-04-19T02:06:25;92966.97;;;7.76;100.00
8294;BME280;4185;41.506;24.938;2023-04-19T02:08:52;92961.09;;;7.78;100.00
8294;BME280;4185;41.506;24.938;2023-04-19T02:11:19;92959.63;;;7.82;100.00
8294;BME280;4185;41.506;24.938;2023-04-19T02:13:47;92959.91;;;7.84;100.00
8294;BME280;4185;41.506;24.938;2023-04-19T02:16:13;92960.63;;;7.85;100.00
8294;BME280;4185;41.506;24.938;2023-04-19T02:18:40;92955.19;;;7.79;100.00
8294;BME280;4185;41.506;24.938;2023-04-19T02:21:08;92949.78;;;7.79;100.00
8294;BME280;4185;41.506;24.938;2023-04-19T02:23:35;92954.72;;;7.81;100.00
8294;BME280;4185;41.506;24.938;2023-04-19T02:26:02;92952.50;;;7.79;100.00
8294;BME280;4185;41.506;24.938;2023-04-19T02:28:29;92951.00;;;7.78;100.00
8294;BME280;4185;41.506;24.938;2023-04-19T02:30:57;92958.13;;;7.76;100.00
8294;BME280;4185;41.506;24.938;2023-04-19T02:33:26;92950.00;;;7.76;100.00
8294;BME280;4185;41.506;24.938;2023-04-19T02:35:53;92955.69;;;7.78;100.00
8294;BME280;4185;41.506;24.938;2023-04-19T02:38:20;92949.03;;;7.79;100.00
8294;BME280;4185;41.506;24.938;2023-04-19T02:40:46;92951.00;;;7.78;100.00
8294;BME280;4185;41.506;24.938;2023-04-19T02:43:13;92941.34;;;7.72;100.00
8294;BME280;4185;41.506;24.938;2023-04-19T02:45:40;92940.41;;;7.75;100.00
8294;BME280;4185;41.506;24.938;2023-04-19T02:48:08;92933.53;;;7.74;100.00
8294;BME280;4185;41.506;24.938;2023-04-19T02:50:36;92934.69;;;7.67;100.00
8294;BME280;4185;41.506;24.938;2023-04-19T02:53:03;92939.63;;;7.69;100.00
8294;BME280;4185;41.506;24.938;2023-04-19T02:55:31;92938.09;;;7.62;100.00
8294;BME280;4185;41.506;24.938;2023-04-19T02:57:58;92940.50;;;7.55;100.00
8294;BME280;4185;41.506;24.938;2023-04-19T03:00:25;92940.00;;;7.56;100.00
8294;BME280;4185;41.506;24.938;2023-04-19T03:02:52;92934.91;;;7.64;100.00
8294;BME280;4185;41.506;24.938;2023-04-19T03:05:22;92931.50;;;7.69;100.00
8294;BME280;4185;41.506;24.938;2023-04-19T03:07:48;92935.69;;;7.70;100.00
8294;BME280;4185;41.506;24.938;2023-04-19T03:10:15;92930.56;;;7.72;100.00
8294;BME280;4185;41.506;24.938;2023-04-19T03:12:42;92939.47;;;7.78;100.00
8294;BME280;4185;41.506;24.938;2023-04-19T03:15:10;92935.00;;;7.75;100.00
8294;BME280;4185;41.506;24.938;2023-04-19T03:17:36;92934.06;;;7.78;100.00
8294;BME280;4185;41.506;24.938;2023-04-19T03:20:04;92935.31;;;7.82;100.00
8294;BME280;4185;41.506;24.938;2023-04-19T03:22:35;92931.63;;;7.85;100.00
8294;BME280;4185;41.506;24.938;2023-04-19T03:25:03;92937.00;;;7.80;100.00
8294;BME280;4185;41.506;24.938;2023-04-19T03:27:33;92939.25;;;7.87;100.00
8294;BME280;4185;41.506;24.938;2023-04-19T03:30:00;92937.56;;;7.89;100.00
8294;BME280;4185;41.506;24.938;2023-04-19T03:32:26;92919.78;;;7.77;100.00
8294;BME280;4185;41.506;24.938;2023-04-19T03:34:53;92946.16;;;7.88;100.00
8294;BME280;4185;41.506;24.938;2023-04-19T03:37:20;92943.69;;;7.84;100.00
8294;BME280;4185;41.506;24.938;2023-04-19T03:39:48;92943.41;;;7.82;100.00
8294;BME280;4185;41.506;24.938;2023-04-19T03:42:15;92951.75;;;7.79;100.00
8294;BME280;4185;41.506;24.938;2023-04-19T03:44:41;92954.19;;;7.77;100.00
8294;BME280;4185;41.506;24.938;2023-04-19T03:47:08;92954.19;;;7.77;100.00
8294;BME280;4185;41.506;24.938;2023-04-19T03:49:35;92951.22;;;7.75;100.00
8294;BME280;4185;41.506;24.938;2023-04-19T03:52:02;92952.22;;;7.77;100.00
8294;BME280;4185;41.506;24.938;2023-04-19T03:54:29;92952.50;;;7.79;100.00
8294;BME280;4185;41.506;24.938;2023-04-19T03:56:57;92954.72;;;7.81;100.00
8294;BME280;4185;41.506;24.938;2023-04-19T03:59:24;92957.91;;;7.79;100.00
8294;BME280;4185;41.506;24.938;2023-04-19T04:01:50;92956.88;;;7.77;100.00
8294;BME280;4185;41.506;24.938;2023-04-19T04:04:17;92956.88;;;7.77;100.00
8294;BME280;4185;41.506;24.938;2023-04-19T04:06:44;92957.91;;;7.79;100.00
8294;BME280;4185;41.506;24.938;2023-04-19T04:09:11;92948.03;;;7.76;100.00
8294;BME280;4185;41.506;24.938;2023-04-19T04:11:37;92954.19;;;7.77;100.00
8294;BME280;4185;41.506;24.938;2023-04-19T04:14:05;92954.19;;;7.77;100.00
8294;BME280;4185;41.506;24.938;2023-04-19T04:16:32;92951.69;;;7.73;100.00
8294;BME280;4185;41.506;24.938;2023-04-19T04:18:59;92957.63;;;7.77;100.00
8294;BME280;4185;41.506;24.938;2023-04-19T04:21:26;92955.22;;;7.85;100.00
8294;BME280;4185;41.506;24.938;2023-04-19T04:23:52;92960.63;;;7.85;100.00
8294;BME280;4185;41.506;24.938;2023-04-19T04:26:19;92950.06;;;7.81;100.00
8294;BME280;4185;41.506;24.938;2023-04-19T04:28:49;92944.38;;;7.79;100.00
8294;BME280;4185;41.506;24.938;2023-04-19T04:31:17;92954.72;;;7.81;100.00
8294;BME280;4185;41.506;24.938;2023-04-19T04:33:45;92961.09;;;7.78;100.00
8294;BME280;4185;41.506;24.938;2023-04-19T04:36:12;92962.81;;;7.81;100.00
8294;BME280;4185;41.506;24.938;2023-04-19T04:38:38;92966.72;;;7.80;100.00
8294;BME280;4185;41.506;24.938;2023-04-19T04:41:05;92966.50;;;7.78;100.00
8294;BME280;4185;41.506;24.938;2023-04-19T04:43:33;92962.81;;;7.81;100.00
8294;BME280;4185;41.506;24.938;2023-04-19T04:45:59;92966.28;;;7.81;100.00
8294;BME280;4185;41.506;24.938;2023-04-19T04:48:28;92957.63;;;7.77;100.00
8294;BME280;4185;41.506;24.938;2023-04-19T04:50:55;92967.47;;;7.80;100.00
8294;BME280;4185;41.506;24.938;2023-04-19T04:53:24;92956.16;;;7.76;100.00
8294;BME280;4185;41.506;24.938;2023-04-19T04:55:52;92965.25;;;7.79;100.00
8294;BME280;4185;41.506;24.938;2023-04-19T04:58:19;92964.03;;;7.80;100.00
8294;BME280;4185;41.506;24.938;2023-04-19T05:00:46;92961.31;;;7.80;100.00
8294;BME280;4185;41.506;24.938;2023-04-19T05:03:13;92961.38;;;7.85;100.00
8294;BME280;4185;41.506;24.938;2023-04-19T05:05:42;92968.28;;;7.92;100.00
8294;BME280;4185;41.506;24.938;2023-04-19T05:08:09;92961.16;;;7.89;100.00
8294;BME280;4185;41.506;24.938;2023-04-19T05:10:35;92960.63;;;7.85;100.00
8294;BME280;4185;41.506;24.938;2023-04-19T05:13:02;92966.03;;;7.85;100.00
8294;BME280;4185;41.506;24.938;2023-04-19T05:15:29;92965.75;;;7.77;100.00
8294;BME280;4185;41.506;24.938;2023-04-19T05:17:56;92971.44;;;7.85;100.00
8294;BME280;4185;41.506;24.938;2023-04-19T05:20:23;92966.81;;;7.91;100.00
8294;BME280;4185;41.506;24.938;2023-04-19T05:22:55;92964.41;;;7.98;100.00
8294;BME280;4185;41.506;24.938;2023-04-19T05:25:22;92962.19;;;7.97;100.00
8294;BME280;4185;41.506;24.938;2023-04-19T05:27:49;92971.34;;;8.05;100.00
8294;BME280;4185;41.506;24.938;2023-04-19T05:30:16;92961.31;;;8.11;100.00
8294;BME280;4185;41.506;24.938;2023-04-19T05:32:43;92967.75;;;8.19;100.00
8294;BME280;4185;41.506;24.938;2023-04-19T05:35:10;92966.06;;;8.21;100.00
8294;BME280;4185;41.506;24.938;2023-04-19T05:37:37;92962.66;;;8.26;100.00
8294;BME280;4185;41.506;24.938;2023-04-19T05:40:08;92963.91;;;8.31;100.00
8294;BME280;4185;41.506;24.938;2023-04-19T05:42:35;92961.47;;;8.33;100.00
8294;BME280;4185;41.506;24.938;2023-04-19T05:45:03;92961.72;;;8.35;100.00
8294;BME280;4185;41.506;24.938;2023-04-19T05:47:30;92959.78;;;8.41;100.00
8294;BME280;4185;41.506;24.938;2023-04-19T05:49:57;92965.97;;;8.47;100.00
8294;BME280;4185;41.506;24.938;2023-04-19T05:52:23;92966.00;;;8.52;100.00
8294;BME280;4185;41.506;24.938;2023-04-19T05:54:50;92965.03;;;8.61;100.00
8294;BME280;4185;41.506;24.938;2023-04-19T05:57:18;92963.09;;;8.61;100.00
8294;BME280;4185;41.506;24.938;2023-04-19T05:59:45;92965.81;;;8.67;100.00
8294;BME280;4185;41.506;24.938;2023-04-19T06:02:12;92964.84;;;8.70;100.00
8294;BME280;4185;41.506;24.938;2023-04-19T06:04:39;92964.88;;;8.76;100.00
8294;BME280;4185;41.506;24.938;2023-04-19T06:07:06;92960.19;;;8.76;100.00
8294;BME280;4185;41.506;24.938;2023-04-19T06:09:33;92956.28;;;8.77;100.00
8294;BME280;4185;41.506;24.938;2023-04-19T06:11:59;92959.72;;;8.83;100.00
8294;BME280;4185;41.506;24.938;2023-04-19T06:14:28;92958.78;;;8.86;100.00
8294;BME280;4185;41.506;24.938;2023-04-19T06:16:54;92962.72;;;8.91;100.00
8294;BME280;4185;41.506;24.938;2023-04-19T06:19:21;92964.19;;;8.92;100.00
8294;BME280;4185;41.506;24.938;2023-04-19T06:21:48;92965.91;;;8.95;100.00
8294;BME280;4185;41.506;24.938;2023-04-19T06:24:15;92964.47;;;8.99;100.00
8294;BME280;4185;41.506;24.938;2023-04-19T06:26:42;92959.31;;;9.01;100.00
8294;BME280;4185;41.506;24.938;2023-04-19T06:29:08;92961.78;;;9.05;100.00
8294;BME280;4185;41.506;24.938;2023-04-19T06:31:37;92961.78;;;9.10;100.00
8294;BME280;4185;41.506;24.938;2023-04-19T06:34:04;92971.19;;;9.15;100.00
8294;BME280;4185;41.506;24.938;2023-04-19T06:36:31;92964.53;;;9.21;100.00
8294;BME280;4185;41.506;24.938;2023-04-19T06:38:58;92968.75;;;9.28;100.00
8294;BME280;4185;41.506;24.938;2023-04-19T06:41:25;92971.69;;;9.35;100.00
8294;BME280;4185;41.506;24.938;2023-04-19T06:43:51;92973.69;;;9.40;100.00
8294;BME280;4185;41.506;24.938;2023-04-19T06:46:18;92970.22;;;9.45;100.00
8294;BME280;4185;41.506;24.938;2023-04-19T06:48:46;92977.66;;;9.50;100.00
8294;BME280;4185;41.506;24.938;2023-04-19T06:51:16;92979.63;;;9.55;100.00
8294;BME280;4185;41.506;24.938;2023-04-19T06:53:46;92975.19;;;9.58;100.00
8294;BME280;4185;41.506;24.938;2023-04-19T06:56:13;92980.13;;;9.65;100.00
8294;BME280;4185;41.506;24.938;2023-04-19T06:58:40;92983.09;;;9.67;100.00
8294;BME280;4185;41.506;24.938;2023-04-19T07:01:06;92983.09;;;9.72;100.00
8294;BME280;4185;41.506;24.938;2023-04-19T07:03:33;92978.66;;;9.75;100.00
8294;BME280;4185;41.506;24.938;2023-04-19T07:06:02;92979.63;;;9.77;100.00
8294;BME280;4185;41.506;24.938;2023-04-19T07:08:29;92979.41;;;9.75;100.00
8294;BME280;4185;41.506;24.938;2023-04-19T07:10:56;92987.78;;;9.83;100.00
8294;BME280;4185;41.506;24.938;2023-04-19T07:13:23;92982.13;;;9.86;100.00
8294;BME280;4185;41.506;24.938;2023-04-19T07:15:50;92985.56;;;9.93;100.00
8294;BME280;4185;41.506;24.938;2023-04-19T07:18:17;92974.22;;;10.00;100.00
8294;BME280;4185;41.506;24.938;2023-04-19T07:20:44;92990.75;;;10.07;100.00
8294;BME280;4185;41.506;24.938;2023-04-19T07:23:14;92984.09;;;10.14;100.00
8294;BME280;4185;41.506;24.938;2023-04-19T07:25:41;92995.47;;;10.18;100.00
8294;BME280;4185;41.506;24.938;2023-04-19T07:28:08;92993.72;;;10.26;100.00
8294;BME280;4185;41.506;24.938;2023-04-19T07:30:35;92989.28;;;10.28;98.99
8294;BME280;4185;41.506;24.938;2023-04-19T07:33:02;92996.94;;;10.30;99.11
8294;BME280;4185;41.506;24.938;2023-04-19T07:35:32;92997.16;;;10.37;99.41
8294;BME280;4185;41.506;24.938;2023-04-19T07:37:59;92992.69;;;10.45;98.67
8294;BME280;4185;41.506;24.938;2023-04-19T07:40:27;92992.94;;;10.53;98.00
8294;BME280;4185;41.506;24.938;2023-04-19T07:42:55;92999.09;;;10.59;98.35
8294;BME280;4185;41.506;24.938;2023-04-19T07:45:22;92993.91;;;10.61;97.01
8294;BME280;4185;41.506;24.938;2023-04-19T07:47:49;93004.50;;;10.70;96.39
8294;BME280;4185;41.506;24.938;2023-04-19T07:50:16;93004.00;;;10.71;95.92
8294;BME280;4185;41.506;24.938;2023-04-19T07:52:43;93004.97;;;10.74;95.68
8294;BME280;4185;41.506;24.938;2023-04-19T07:55:10;93005.97;;;10.76;96.61
8294;BME280;4185;41.506;24.938;2023-04-19T07:57:38;93014.63;;;10.80;95.62
8294;BME280;4185;41.506;24.938;2023-04-19T08:00:06;93007.22;;;10.75;95.49
8294;BME280;4185;41.506;24.938;2023-04-19T08:02:35;93011.66;;;10.73;94.00
8294;BME280;4185;41.506;24.938;2023-04-19T08:05:02;93007.22;;;10.70;94.94
8294;BME280;4185;41.506;24.938;2023-04-19T08:07:29;93010.19;;;10.66;94.17
8294;BME280;4185;41.506;24.938;2023-04-19T08:09:56;93017.84;;;10.68;94.87
8294;BME280;4185;41.506;24.938;2023-04-19T08:12:23;93007.72;;;10.68;94.02
8294;BME280;4185;41.506;24.938;2023-04-19T08:14:51;93008.69;;;10.71;94.06
8294;BME280;4185;41.506;24.938;2023-04-19T08:17:18;93007.69;;;10.74;94.67
8294;BME280;4185;41.506;24.938;2023-04-19T08:19:48;93009.44;;;10.77;94.46
8294;BME280;4185;41.506;24.938;2023-04-19T08:22:15;93010.38;;;10.85;94.40
8294;BME280;4185;41.506;24.938;2023-04-19T08:24:43;93008.88;;;10.95;94.58
8294;BME280;4185;41.506;24.938;2023-04-19T08:27:10;93011.09;;;11.02;94.15
8294;BME280;4185;41.506;24.938;2023-04-19T08:29:37;93008.59;;;11.04;91.21
8294;BME280;4185;41.506;24.938;2023-04-19T08:32:06;93001.91;;;11.11;92.17
8294;BME280;4185;41.506;24.938;2023-04-19T08:34:34;93009.56;;;11.12;88.91
8294;BME280;4185;41.506;24.938;2023-04-19T08:37:01;93007.09;;;11.14;90.59
8294;BME280;4185;41.506;24.938;2023-04-19T08:39:28;93007.31;;;11.16;90.12
8294;BME280;4185;41.506;24.938;2023-04-19T08:41:55;93006.06;;;11.17;89.45
8294;BME280;4185;41.506;24.938;2023-04-19T08:44:23;93007.53;;;11.18;89.68
8294;BME280;4185;41.506;24.938;2023-04-19T08:46:50;93000.88;;;11.19;86.97
8294;BME280;4185;41.506;24.938;2023-04-19T08:49:19;93005.84;;;11.15;87.68
8294;BME280;4185;41.506;24.938;2023-04-19T08:51:48;93007.09;;;11.14;85.04
8294;BME280;4185;41.506;24.938;2023-04-19T08:54:15;93005.06;;;11.20;84.29
8294;BME280;4185;41.506;24.938;2023-04-19T08:56:43;92996.63;;;11.29;85.26
8294;BME280;4185;41.506;24.938;2023-04-19T08:59:10;93002.53;;;11.33;83.51
8294;BME280;4185;41.506;24.938;2023-04-19T09:01:38;93004.03;;;11.34;82.58
8294;BME280;4185;41.506;24.938;2023-04-19T09:04:06;93006.22;;;11.41;83.37
8294;BME280;4185;41.506;24.938;2023-04-19T09:06:36;93008.16;;;11.46;86.30
8294;BME280;4185;41.506;24.938;2023-04-19T09:09:14;93011.34;;;11.50;85.64
8294;BME280;4185;41.506;24.938;2023-04-19T09:11:41;93008.88;;;11.52;85.97
8294;BME280;4185;41.506;24.938;2023-04-19T09:14:09;93008.88;;;11.52;86.22
8294;BME280;4185;41.506;24.938;2023-04-19T09:16:36;93009.88;;;11.49;85.10
8294;BME280;4185;41.506;24.938;2023-04-19T09:19:04;93014.38;;;11.41;85.87
8294;BME280;4185;41.506;24.938;2023-04-19T09:21:32;93021.03;;;11.40;86.63
8294;BME280;4185;41.506;24.938;2023-04-19T09:24:01;93012.41;;;11.36;88.52
8294;BME280;4185;41.506;24.938;2023-04-19T09:26:28;93020.34;;;11.34;87.29
8294;BME280;4185;41.506;24.938;2023-04-19T09:28:55;93022.56;;;11.30;86.63
8294;BME280;4185;41.506;24.938;2023-04-19T09:31:23;93017.19;;;11.25;87.77
8294;BME280;4185;41.506;24.938;2023-04-19T09:33:50;93009.97;;;11.27;90.01
8294;BME280;4185;41.506;24.938;2023-04-19T09:36:29;93018.56;;;11.37;89.55
8294;BME280;4185;41.506;24.938;2023-04-19T09:38:57;93008.41;;;11.48;92.24
8294;BME280;4185;41.506;24.938;2023-04-19T09:41:25;93016.00;;;11.55;89.14
8294;BME280;4185;41.506;24.938;2023-04-19T09:43:52;93008.34;;;11.59;87.08
8294;BME280;4185;41.506;24.938;2023-04-19T09:46:37;93004.84;;;11.70;84.67
8294;BME280;4185;41.506;24.938;2023-04-19T09:49:18;93009.69;;;11.82;83.54
8294;BME280;4185;41.506;24.938;2023-04-19T09:51:46;93016.75;;;12.02;82.08
8294;BME280;4185;41.506;24.938;2023-04-19T09:54:14;93002.25;;;12.18;81.89
8294;BME280;4185;41.506;24.938;2023-04-19T09:56:43;93010.88;;;12.27;79.66
8294;BME280;4185;41.506;24.938;2023-04-19T09:59:10;93007.25;;;12.44;81.43
8294;BME280;4185;41.506;24.938;2023-04-19T10:01:38;93006.69;;;12.51;79.77
8294;BME280;4185;41.506;24.938;2023-04-19T10:04:06;93006.56;;;12.62;78.86
8294;BME280;4185;41.506;24.938;2023-04-19T10:06:36;93001.03;;;12.73;77.59
8294;BME280;4185;41.506;24.938;2023-04-19T10:09:04;93006.06;;;12.87;76.65
8294;BME280;4185;41.506;24.938;2023-04-19T10:11:54;92990.94;;;12.92;77.86
8294;BME280;4185;41.506;24.938;2023-04-19T10:14:26;92998.44;;;13.10;77.59
8294;BME280;4185;41.506;24.938;2023-04-19T10:16:55;92991.13;;;13.18;76.55
8294;BME280;4185;41.506;24.938;2023-04-19T10:19:22;92990.31;;;13.23;76.38
8294;BME280;4185;41.506;24.938;2023-04-19T10:21:50;92988.63;;;13.20;74.65
8294;BME280;4185;41.506;24.938;2023-04-19T10:24:17;92979.78;;;13.14;73.96
8294;BME280;4185;41.506;24.938;2023-04-19T10:27:06;92986.88;;;12.98;73.00
8294;BME280;4185;41.506;24.938;2023-04-19T10:29:54;92978.66;;;12.80;72.86
8294;BME280;4185;41.506;24.938;2023-04-19T10:32:21;92989.84;;;12.76;72.16
8294;BME280;4185;41.506;24.938;2023-04-19T10:34:50;92982.63;;;12.79;72.81
8294;BME280;4185;41.506;24.938;2023-04-19T10:37:21;92979.09;;;12.84;72.48
8294;BME280;4185;41.506;24.938;2023-04-19T10:39:48;92972.66;;;12.87;71.88
8294;BME280;4185;41.506;24.938;2023-04-19T10:42:16;92972.28;;;12.96;71.44
8294;BME280;4185;41.506;24.938;2023-04-19T10:47:51;92967.34;;;13.37;68.86
8294;BME280;4185;41.506;24.938;2023-04-19T10:50:18;92969.72;;;13.46;69.64
8294;BME280;4185;41.506;24.938;2023-04-19T10:52:45;92962.41;;;13.54;68.88
8294;BME280;4185;41.506;24.938;2023-04-19T10:55:14;92956.41;;;13.74;68.92
8294;BME280;4185;41.506;24.938;2023-04-19T10:58:02;92961.66;;;13.72;69.05
8294;BME280;4185;41.506;24.938;2023-04-19T11:00:29;92957.88;;;13.75;68.45
8294;BME280;4185;41.506;24.938;2023-04-19T11:02:58;92951.03;;;13.69;66.93
8294;BME280;4185;41.506;24.938;2023-04-19T11:05:24;92961.66;;;13.72;66.78
8294;BME280;4185;41.506;24.938;2023-04-19T11:07:51;92953.91;;;13.76;66.51
8294;BME280;4185;41.506;24.938;2023-04-19T11:10:27;92952.59;;;13.96;66.02
8294;BME280;4185;41.506;24.938;2023-04-19T11:12:54;92949.56;;;13.99;65.73
8294;BME280;4185;41.506;24.938;2023-04-19T11:15:23;92953.47;;;14.04;67.53
8294;BME280;4185;41.506;24.938;2023-04-19T11:17:50;92957.19;;;14.19;65.87
8294;BME280;4185;41.506;24.938;2023-04-19T11:20:22;92949.50;;;14.49;63.50
8294;BME280;4185;41.506;24.938;2023-04-19T11:22:48;92951.84;;;14.72;61.04
8294;BME280;4185;41.506;24.938;2023-04-19T11:25:16;92944.47;;;15.06;62.14
8294;BME280;4185;41.506;24.938;2023-04-19T11:27:46;92942.69;;;15.21;64.22
8294;BME280;4185;41.506;24.938;2023-04-19T11:30:14;92948.66;;;15.46;61.45
8294;BME280;4185;41.506;24.938;2023-04-19T11:32:45;92939.41;;;15.49;60.25
8294;BME280;4185;41.506;24.938;2023-04-19T11:35:13;92944.00;;;15.54;60.97
8294;BME280;4185;41.506;24.938;2023-04-19T11:37:40;92943.16;;;15.46;57.52
8294;BME280;4185;41.506;24.938;2023-04-19T11:40:07;92930.16;;;15.13;58.45
8294;BME280;4185;41.506;24.938;2023-04-19T11:42:34;92935.88;;;14.76;60.42
8294;BME280;4185;41.506;24.938;2023-04-19T11:45:02;92938.06;;;14.64;60.99
8294;BME280;4185;41.506;24.938;2023-04-19T11:47:28;92941.44;;;14.57;64.06
8294;BME280;4185;41.506;24.938;2023-04-19T11:50:30;92933.09;;;14.36;61.56
8294;BME280;4185;41.506;24.938;2023-04-19T11:52:58;92942.47;;;14.22;63.43
8294;BME280;4185;41.506;24.938;2023-04-19T11:55:33;92935.13;;;14.17;67.60
8294;BME280;4185;41.506;24.938;2023-04-19T11:58:00;92947.31;;;14.16;68.95
8294;BME280;4185;41.506;24.938;2023-04-19T12:00:28;92940.81;;;14.19;68.33
8294;BME280;4185;41.506;24.938;2023-04-19T12:02:55;92933.22;;;14.12;66.04
8294;BME280;4185;41.506;24.938;2023-04-19T12:05:22;92930.06;;;14.08;66.11
8294;BME280;4185;41.506;24.938;2023-04-19T12:07:59;92933.63;;;14.03;66.86
8294;BME280;4185;41.506;24.938;2023-04-19T12:10:26;92931.16;;;14.18;64.23
8294;BME280;4185;41.506;24.938;2023-04-19T12:12:54;92927.44;;;14.60;64.92
8294;BME280;4185;41.506;24.938;2023-04-19T12:15:21;92929.88;;;14.51;62.89
8294;BME280;4185;41.506;24.938;2023-04-19T12:17:55;92924.69;;;14.34;63.24
8294;BME280;4185;41.506;24.938;2023-04-19T12:20:30;92930.09;;;14.21;63.29
8294;BME280;4185;41.506;24.938;2023-04-19T12:22:57;92920.84;;;14.11;63.31
8294;BME280;4185;41.506;24.938;2023-04-19T12:25:27;92922.28;;;14.12;64.35
8294;BME280;4185;41.506;24.938;2023-04-19T12:27:56;92935.09;;;14.04;65.05
8294;BME280;4185;41.506;24.938;2023-04-19T12:30:23;92933.19;;;13.99;65.72
8294;BME280;4185;41.506;24.938;2023-04-19T12:32:51;92924.81;;;13.79;66.75
8294;BME280;4185;41.506;24.938;2023-04-19T12:35:20;92946.81;;;13.86;69.01
8294;BME280;4185;41.506;24.938;2023-04-19T12:37:46;92945.00;;;13.57;73.64
8294;BME280;4185;41.506;24.938;2023-04-19T12:40:14;92954.75;;;13.34;76.07
8294;BME280;4185;41.506;24.938;2023-04-19T12:42:41;92961.81;;;13.24;77.49
8294;BME280;4185;41.506;24.938;2023-04-19T12:45:10;92961.28;;;13.07;78.29
8294;BME280;4185;41.506;24.938;2023-04-19T12:47:37;92951.91;;;13.02;79.01
8294;BME280;4185;41.506;24.938;2023-04-19T12:50:06;92952.66;;;13.03;78.83
8294;BME280;4185;41.506;24.938;2023-04-19T12:52:35;92952.91;;;12.99;79.31
8294;BME280;4185;41.506;24.938;2023-04-19T12:55:02;92950.16;;;12.81;80.00
8294;BME280;4185;41.506;24.938;2023-04-19T12:57:28;92939.72;;;12.85;82.09
8294;BME280;4185;41.506;24.938;2023-04-19T12:59:55;92933.50;;;13.08;82.43
8294;BME280;4185;41.506;24.938;2023-04-19T13:02:23;92925.69;;;13.18;82.90
8294;BME280;4185;41.506;24.938;2023-04-19T13:04:50;92932.09;;;13.39;82.63
8294;BME280;4185;41.506;24.938;2023-04-19T13:07:17;92934.66;;;13.50;82.74
8294;BME280;4185;41.506;24.938;2023-04-19T13:09:44;92935.56;;;13.39;81.30
8294;BME280;4185;41.506;24.938;2023-04-19T13:12:10;92937.94;;;13.30;82.75
8294;BME280;4185;41.506;24.938;2023-04-19T13:14:37;92951.91;;;13.21;84.15
8294;BME280;4185;41.506;24.938;2023-04-19T13:17:04;92949.56;;;13.12;83.19